createdAt,value
2018-09-16T00:00:52.091Z,99.90
2018-09-16T00:03:19.557Z,99.90
2018-09-16T00:05:47.073Z,99.90
2018-09-16T00:08:14.492Z,99.90
2018-09-16T00:10:41.909Z,99.90
2018-09-16T00:13:09.355Z,99.90
2018-09-16T00:15:36.856Z,99.90
2018-09-16T00:18:04.276Z,99.90
2018-09-16T00:20:31.689Z,99.90
2018-09-16T00:22:59.423Z,99.90
2018-09-16T00:25:26.824Z,99.90
2018-09-16T00:27:54.295Z,99.90
2018-09-16T00:30:21.723Z,99.90
2018-09-16T00:32:49.233Z,99.90
2018-09-16T00:35:17.116Z,99.90
2018-09-16T00:37:44.756Z,99.90
2018-09-16T00:40:12.159Z,99.90
2018-09-16T00:42:39.577Z,99.90
2018-09-16T00:45:07.619Z,99.90
2018-09-16T00:47:35.097Z,99.90
2018-09-16T00:50:02.564Z,99.90
2018-09-16T00:52:30.060Z,99.90
2018-09-16T00:54:57.623Z,99.90
2018-09-16T00:57:25.028Z,99.90
2018-09-16T00:59:52.456Z,99.90
2018-09-16T01:02:19.861Z,99.90
2018-09-16T01:04:47.300Z,99.90
2018-09-16T01:07:14.824Z,99.90
2018-09-16T01:09:42.263Z,99.90
2018-09-16T01:12:09.732Z,99.90
2018-09-16T01:14:37.170Z,99.90
2018-09-16T01:17:04.612Z,99.90
2018-09-16T01:19:32.122Z,99.90
2018-09-16T01:21:59.527Z,99.90
2018-09-16T01:24:27.000Z,99.90
2018-09-16T01:26:54.414Z,99.90
2018-09-16T01:29:21.881Z,99.90
2018-09-16T01:31:49.309Z,99.90
2018-09-16T01:34:16.720Z,99.90
2018-09-16T01:36:44.225Z,99.90
2018-09-16T01:39:11.685Z,99.90
2018-09-16T01:41:39.168Z,99.90
2018-09-16T01:44:06.632Z,99.90
2018-09-16T01:46:34.135Z,99.90
2018-09-16T01:49:01.576Z,99.90
2018-09-16T01:51:29.012Z,99.90
2018-09-16T01:53:56.420Z,99.90
2018-09-16T01:56:30.485Z,99.90
2018-09-16T01:58:57.960Z,99.90
2018-09-16T02:01:25.722Z,99.90
2018-09-16T02:03:53.133Z,99.90
2018-09-16T02:06:20.568Z,99.90
2018-09-16T02:08:48.003Z,99.90
2018-09-16T02:11:15.496Z,99.90
2018-09-16T02:13:42.920Z,99.90
2018-09-16T02:16:10.355Z,99.90
2018-09-16T02:18:37.796Z,99.90
2018-09-16T02:21:05.216Z,99.90
2018-09-16T02:23:32.651Z,99.90
2018-09-16T02:26:00.080Z,99.90
2018-09-16T02:28:27.592Z,99.90
2018-09-16T02:30:55.011Z,99.90
2018-09-16T02:33:22.578Z,99.90
2018-09-16T02:35:50.001Z,99.90
2018-09-16T02:38:17.512Z,99.90
2018-09-16T02:40:44.911Z,99.90
2018-09-16T02:43:12.373Z,99.90
2018-09-16T02:45:39.807Z,99.90
2018-09-16T02:48:07.229Z,99.90
2018-09-16T02:50:34.644Z,99.90
2018-09-16T02:53:02.067Z,99.90
2018-09-16T02:55:29.477Z,99.90
2018-09-16T02:57:56.902Z,99.90
2018-09-16T03:00:24.328Z,99.90
2018-09-16T03:02:51.865Z,99.90
2018-09-16T03:05:24.767Z,99.90
2018-09-16T03:07:52.179Z,99.90
2018-09-16T03:10:19.597Z,99.90
2018-09-16T03:12:47.416Z,99.90
2018-09-16T03:15:14.972Z,99.90
2018-09-16T03:17:42.380Z,99.90
2018-09-16T03:20:09.866Z,99.90
2018-09-16T03:22:37.394Z,99.90
2018-09-16T03:25:04.840Z,99.90
2018-09-16T03:27:32.276Z,99.90
2018-09-16T03:29:59.712Z,99.90
2018-09-16T03:32:27.165Z,99.90
2018-09-16T03:34:54.586Z,99.90
2018-09-16T03:37:22.005Z,99.90
2018-09-16T03:39:49.499Z,99.90
2018-09-16T03:42:16.920Z,99.90
2018-09-16T03:44:44.340Z,99.90
2018-09-16T03:47:11.772Z,99.90
2018-09-16T03:49:39.190Z,99.90
2018-09-16T03:52:06.653Z,99.90
2018-09-16T03:54:34.081Z,99.90
2018-09-16T03:57:01.568Z,99.90
2018-09-16T03:59:28.990Z,99.90
2018-09-16T04:01:56.385Z,99.90
2018-09-16T04:04:23.796Z,99.90
2018-09-16T04:06:51.681Z,99.90
2018-09-16T04:09:19.112Z,99.90
2018-09-16T04:11:46.588Z,99.90
2018-09-16T04:14:14.029Z,99.90
2018-09-16T04:16:41.428Z,99.90
2018-09-16T04:19:08.863Z,99.90
2018-09-16T04:21:36.334Z,99.90
2018-09-16T04:24:03.738Z,99.90
2018-09-16T04:26:31.267Z,99.90
2018-09-16T04:28:58.776Z,99.90
2018-09-16T04:31:26.271Z,99.90
2018-09-16T04:33:53.865Z,99.90
2018-09-16T04:36:21.259Z,99.90
2018-09-16T04:38:48.668Z,99.90
2018-09-16T04:41:16.123Z,99.90
2018-09-16T04:43:43.634Z,99.90
2018-09-16T04:46:11.050Z,99.90
2018-09-16T04:48:38.547Z,99.90
2018-09-16T04:51:06.065Z,99.90
2018-09-16T04:53:33.471Z,99.90
2018-09-16T04:56:00.884Z,99.90
2018-09-16T04:58:28.284Z,99.90
2018-09-16T05:00:55.703Z,99.90
2018-09-16T05:03:23.148Z,99.90
2018-09-16T05:05:50.615Z,99.90
2018-09-16T05:08:18.004Z,99.90
2018-09-16T05:10:45.489Z,99.90
2018-09-16T05:13:12.941Z,99.90
2018-09-16T05:15:40.334Z,99.90
2018-09-16T05:18:07.913Z,99.90
2018-09-16T05:20:35.348Z,99.90
2018-09-16T05:23:02.783Z,99.90
2018-09-16T05:25:30.212Z,99.90
2018-09-16T05:27:57.651Z,99.90
2018-09-16T05:30:25.065Z,99.90
2018-09-16T05:32:52.556Z,99.90
2018-09-16T05:35:20.012Z,99.90
2018-09-16T05:37:47.545Z,99.90
2018-09-16T05:40:14.932Z,99.90
2018-09-16T05:42:42.547Z,99.90
2018-09-16T05:45:10.365Z,99.90
2018-09-16T05:47:37.793Z,99.90
2018-09-16T05:50:05.237Z,99.90
2018-09-16T05:52:32.725Z,99.90
2018-09-16T05:55:00.125Z,99.90
2018-09-16T05:57:27.586Z,99.90
2018-09-16T05:59:55.021Z,99.90
2018-09-16T06:02:22.549Z,99.90
2018-09-16T06:04:50.842Z,99.90
2018-09-16T06:07:18.652Z,99.90
2018-09-16T06:09:46.296Z,99.90
2018-09-16T06:12:13.820Z,99.90
2018-09-16T06:14:41.284Z,99.90
2018-09-16T06:17:08.703Z,99.90
2018-09-16T06:19:36.130Z,99.90
2018-09-16T06:22:03.644Z,99.90
2018-09-16T06:24:31.068Z,99.90
2018-09-16T06:26:58.557Z,99.90
2018-09-16T06:29:26.009Z,99.90
2018-09-16T06:31:53.450Z,99.90
2018-09-16T06:34:21.065Z,99.90
2018-09-16T06:36:48.493Z,99.90
2018-09-16T06:39:15.939Z,99.90
2018-09-16T06:41:43.447Z,99.90
2018-09-16T06:44:10.901Z,99.90
2018-09-16T06:46:38.508Z,99.90
2018-09-16T06:49:06.800Z,99.90
2018-09-16T06:51:34.199Z,99.90
2018-09-16T06:54:01.621Z,99.90
2018-09-16T06:56:29.020Z,99.90
2018-09-16T06:58:57.005Z,99.90
2018-09-16T07:01:24.458Z,99.90
2018-09-16T07:03:51.896Z,99.90
2018-09-16T07:06:19.473Z,99.90
2018-09-16T07:08:47.041Z,99.90
2018-09-16T07:11:14.536Z,99.90
2018-09-16T07:13:42.005Z,99.90
2018-09-16T07:16:09.461Z,99.90
2018-09-16T07:18:36.905Z,99.90
2018-09-16T07:21:04.397Z,99.90
2018-09-16T07:23:32.096Z,99.90
2018-09-16T07:26:00.459Z,99.90
2018-09-16T07:28:27.988Z,99.90
2018-09-16T07:30:55.404Z,98.10
2018-09-16T07:33:22.827Z,96.80
2018-09-16T07:35:51.400Z,96.00
2018-09-16T07:38:18.812Z,94.80
2018-09-16T07:40:46.355Z,92.80
2018-09-16T07:43:14.075Z,91.10
2018-09-16T07:45:41.492Z,89.60
2018-09-16T07:48:08.903Z,87.70
2018-09-16T07:50:36.392Z,88.40
2018-09-16T07:53:03.811Z,84.70
2018-09-16T07:55:31.225Z,83.80
2018-09-16T07:57:58.759Z,83.20
2018-09-16T08:00:26.258Z,84.70
2018-09-16T08:02:53.748Z,83.20
2018-09-16T08:05:21.184Z,81.40
2018-09-16T08:07:48.721Z,79.40
2018-09-16T08:10:16.142Z,76.80
2018-09-16T08:12:43.548Z,76.30
2018-09-16T08:15:11.092Z,76.90
2018-09-16T08:17:38.529Z,75.20
2018-09-16T08:20:06.016Z,76.00
2018-09-16T08:22:33.393Z,74.00
2018-09-16T08:25:00.849Z,76.10
2018-09-16T08:27:28.397Z,73.80
2018-09-16T08:29:55.848Z,75.00
2018-09-16T08:32:23.360Z,74.20
2018-09-16T08:34:50.780Z,73.10
2018-09-16T08:37:18.220Z,72.70
2018-09-16T08:39:45.636Z,74.70
2018-09-16T08:42:13.193Z,73.00
2018-09-16T08:44:40.667Z,73.80
2018-09-16T08:47:08.080Z,75.00
2018-09-16T08:49:35.496Z,70.10
2018-09-16T08:52:02.883Z,70.40
2018-09-16T08:54:30.283Z,69.40
2018-09-16T08:56:57.715Z,68.40
2018-09-16T08:59:25.233Z,67.80
2018-09-16T09:01:52.796Z,68.80
2018-09-16T09:04:20.217Z,66.30
2018-09-16T09:06:47.615Z,63.90
2018-09-16T09:09:15.024Z,64.80
2018-09-16T09:11:42.938Z,63.50
2018-09-16T09:14:10.630Z,65.00
2018-09-16T09:16:38.013Z,67.70
2018-09-16T09:19:05.517Z,64.80
2018-09-16T09:21:32.956Z,63.70
2018-09-16T09:24:00.381Z,61.10
2018-09-16T09:26:27.827Z,63.30
2018-09-16T09:28:55.529Z,63.60
2018-09-16T09:31:22.977Z,60.70
2018-09-16T09:33:50.396Z,66.30
2018-09-16T09:36:17.993Z,63.80
2018-09-16T09:38:45.404Z,61.80
2018-09-16T09:41:12.933Z,59.60
2018-09-16T09:43:40.509Z,59.00
2018-09-16T09:46:07.950Z,61.90
2018-09-16T09:48:35.357Z,58.50
2018-09-16T09:51:02.846Z,58.00
2018-09-16T09:53:30.310Z,58.30
2018-09-16T09:55:58.008Z,57.00
2018-09-16T09:58:25.438Z,57.00
2018-09-16T10:00:52.868Z,59.90
2018-09-16T10:03:21.246Z,57.60
2018-09-16T10:05:49.150Z,57.00
2018-09-16T10:08:22.225Z,56.50
2018-09-16T10:10:49.669Z,59.70
2018-09-16T10:13:17.134Z,56.80
2018-09-16T10:15:44.619Z,57.00
2018-09-16T10:18:12.074Z,55.20
2018-09-16T10:20:39.484Z,56.40
2018-09-16T10:23:06.932Z,59.50
2018-09-16T10:25:34.789Z,55.50
2018-09-16T10:28:02.322Z,53.90
2018-09-16T10:30:29.777Z,58.00
2018-09-16T10:32:57.307Z,59.30
2018-09-16T10:35:24.716Z,57.80
2018-09-16T10:37:52.160Z,55.90
2018-09-16T10:40:19.702Z,57.20
2018-09-16T10:42:47.133Z,52.90
2018-09-16T10:45:15.262Z,52.40
2018-09-16T10:47:42.684Z,52.50
2018-09-16T10:50:11.221Z,52.90
2018-09-16T10:52:38.644Z,57.60
2018-09-16T10:55:06.358Z,54.20
2018-09-16T10:57:33.871Z,52.90
2018-09-16T11:00:01.289Z,51.50
2018-09-16T11:02:28.813Z,50.40
2018-09-16T11:04:56.217Z,51.70
2018-09-16T11:07:23.641Z,51.80
2018-09-16T11:09:51.114Z,51.10
2018-09-16T11:12:19.311Z,51.90
2018-09-16T11:14:47.050Z,53.50
2018-09-16T11:17:14.494Z,50.80
2018-09-16T11:19:41.998Z,52.40
2018-09-16T11:22:09.440Z,50.90
2018-09-16T11:24:36.917Z,50.10
2018-09-16T11:27:04.523Z,50.90
2018-09-16T11:29:32.433Z,51.20
2018-09-16T11:31:59.859Z,51.10
2018-09-16T11:34:27.352Z,52.30
2018-09-16T11:36:54.828Z,52.50
2018-09-16T11:39:22.270Z,51.30
2018-09-16T11:41:49.742Z,52.70
2018-09-16T11:44:17.156Z,51.10
2018-09-16T11:46:44.600Z,52.60
2018-09-16T11:49:12.002Z,51.90
2018-09-16T11:51:39.500Z,53.70
2018-09-16T11:54:06.874Z,55.20
2018-09-16T11:56:34.306Z,53.70
2018-09-16T11:59:01.743Z,53.80
2018-09-16T12:01:29.162Z,53.60
2018-09-16T12:03:56.595Z,53.70
2018-09-16T12:06:24.046Z,53.40
2018-09-16T12:08:51.473Z,54.00
2018-09-16T12:11:19.094Z,55.50
2018-09-16T12:13:46.518Z,54.10
2018-09-16T12:16:14.181Z,55.40
2018-09-16T12:18:41.548Z,56.30
2018-09-16T12:21:08.983Z,55.80
2018-09-16T12:23:36.446Z,57.00
2018-09-16T12:26:03.872Z,55.40
2018-09-16T12:28:31.380Z,55.90
2018-09-16T12:30:58.871Z,55.60
2018-09-16T12:33:26.212Z,55.50
2018-09-16T12:35:53.642Z,56.70
2018-09-16T12:38:21.157Z,57.60
2018-09-16T12:40:48.668Z,56.10
2018-09-16T12:43:16.099Z,56.60
2018-09-16T12:45:43.629Z,57.40
2018-09-16T12:48:11.153Z,57.20
2018-09-16T12:50:38.584Z,57.20
2018-09-16T12:53:06.069Z,57.40
2018-09-16T12:55:33.513Z,56.80
2018-09-16T12:58:00.988Z,57.00
2018-09-16T13:00:28.424Z,58.20
2018-09-16T13:02:55.921Z,57.00
2018-09-16T13:05:23.376Z,56.90
2018-09-16T13:07:54.336Z,56.40
2018-09-16T13:10:21.757Z,57.30
2018-09-16T13:12:49.481Z,57.40
2018-09-16T13:15:17.017Z,58.10
2018-09-16T13:17:57.231Z,57.50
2018-09-16T13:20:31.546Z,57.50
2018-09-16T13:22:58.972Z,56.40
2018-09-16T13:25:26.421Z,56.30
2018-09-16T13:27:53.921Z,55.90
2018-09-16T13:30:21.482Z,55.80
2018-09-16T13:32:48.902Z,55.90
2018-09-16T13:35:16.364Z,56.10
2018-09-16T13:37:43.809Z,55.70
2018-09-16T13:40:11.302Z,55.50
2018-09-16T13:42:38.740Z,54.00
2018-09-16T13:45:06.172Z,53.90
2018-09-16T13:47:33.812Z,54.90
2018-09-16T13:50:01.298Z,53.90
2018-09-16T13:52:28.794Z,54.00
2018-09-16T13:54:56.374Z,53.80
2018-09-16T13:57:23.797Z,52.50
2018-09-16T13:59:51.218Z,53.00
2018-09-16T14:02:21.559Z,52.90
2018-09-16T14:04:48.936Z,53.00
2018-09-16T14:07:22.166Z,54.50
2018-09-16T14:09:51.983Z,55.50
2018-09-16T14:12:19.421Z,56.10
2018-09-16T14:14:46.829Z,53.20
2018-09-16T14:17:14.524Z,53.90
2018-09-16T14:19:42.338Z,53.70
2018-09-16T14:22:09.825Z,54.60
2018-09-16T14:24:38.175Z,54.60
2018-09-16T14:27:05.676Z,54.00
2018-09-16T14:29:33.242Z,55.00
2018-09-16T14:32:00.673Z,54.10
2018-09-16T14:34:30.142Z,53.90
2018-09-16T14:36:57.839Z,54.10
2018-09-16T14:39:29.165Z,54.80
2018-09-16T14:41:56.812Z,54.30
2018-09-16T14:44:29.972Z,53.80
2018-09-16T14:46:57.409Z,54.30
2018-09-16T14:49:24.897Z,53.80
2018-09-16T14:51:52.334Z,53.90
2018-09-16T14:54:19.772Z,53.30
2018-09-16T14:56:47.304Z,53.10
2018-09-16T14:59:14.859Z,53.10
2018-09-16T15:01:42.342Z,54.10
2018-09-16T15:04:09.817Z,52.80
2018-09-16T15:06:37.412Z,52.10
2018-09-16T15:09:06.169Z,52.20
2018-09-16T15:11:33.631Z,53.20
2018-09-16T15:14:02.117Z,53.70
2018-09-16T15:16:41.396Z,53.10
2018-09-16T15:19:09.132Z,53.20
2018-09-16T15:21:37.209Z,53.40
2018-09-16T15:24:04.684Z,53.30
2018-09-16T15:26:32.141Z,53.10
2018-09-16T15:28:59.649Z,52.50
2018-09-16T15:31:32.084Z,53.20
2018-09-16T15:34:04.911Z,53.60
2018-09-16T15:36:33.408Z,54.30
2018-09-16T15:39:01.411Z,55.50
2018-09-16T15:41:28.961Z,56.20
2018-09-16T15:44:13.396Z,56.50
2018-09-16T15:46:40.956Z,56.00
2018-09-16T15:49:08.647Z,56.40
2018-09-16T15:54:22.265Z,56.00
2018-09-16T15:56:49.816Z,54.60
2018-09-16T15:59:17.255Z,55.20
2018-09-16T16:01:44.756Z,55.50
2018-09-16T16:04:12.268Z,55.30
2018-09-16T16:06:39.888Z,54.20
2018-09-16T16:09:07.833Z,53.90
2018-09-16T16:11:35.413Z,54.30
2018-09-16T16:14:04.653Z,55.30
2018-09-16T16:16:32.142Z,57.00
2018-09-16T16:19:07.442Z,56.40
2018-09-16T16:21:35.033Z,55.20
2018-09-16T16:24:09.017Z,54.90
2018-09-16T16:26:36.515Z,54.60
2018-09-16T16:29:04.249Z,54.70
2018-09-16T16:31:31.792Z,55.00
2018-09-16T16:33:59.287Z,55.20
2018-09-16T16:36:26.756Z,56.60
2018-09-16T16:38:54.235Z,57.50
2018-09-16T16:41:21.676Z,59.10
2018-09-16T16:43:49.161Z,59.30
2018-09-16T16:46:16.689Z,59.90
2018-09-16T16:48:44.216Z,59.50
2018-09-16T16:51:11.668Z,59.10
2018-09-16T16:53:39.150Z,58.70
2018-09-16T16:56:06.596Z,58.00
2018-09-16T16:58:38.588Z,58.90
2018-09-16T17:01:06.187Z,60.70
2018-09-16T17:03:35.772Z,61.40
2018-09-16T17:06:03.313Z,62.80
2018-09-16T17:08:31.624Z,63.90
2018-09-16T17:10:59.154Z,64.30
2018-09-16T17:13:26.726Z,64.40
2018-09-16T17:15:54.192Z,64.70
2018-09-16T17:18:21.675Z,64.50
2018-09-16T17:20:52.670Z,62.80
2018-09-16T17:23:20.156Z,61.60
2018-09-16T17:28:38.313Z,60.70
2018-09-16T17:31:05.852Z,60.70
2018-09-16T17:33:38.954Z,62.00
2018-09-16T17:36:06.548Z,63.20
2018-09-16T17:38:34.120Z,62.00
2018-09-16T17:41:06.381Z,61.80
2018-09-16T17:43:33.792Z,62.80
2018-09-16T17:46:01.217Z,63.30
2018-09-16T17:48:28.844Z,64.00
2018-09-16T17:50:56.580Z,64.60
2018-09-16T17:53:23.969Z,64.70
2018-09-16T17:55:51.480Z,65.00
2018-09-16T17:58:18.921Z,65.90
2018-09-16T18:00:46.320Z,65.60
2018-09-16T18:03:14.761Z,65.60
2018-09-16T18:05:42.195Z,66.60
2018-09-16T18:08:09.649Z,66.30
2018-09-16T18:10:37.212Z,67.20
2018-09-16T18:13:04.609Z,67.30
2018-09-16T18:15:32.021Z,68.60
2018-09-16T18:17:59.560Z,69.00
2018-09-16T18:20:26.965Z,69.90
2018-09-16T18:22:54.431Z,69.90
2018-09-16T18:25:21.968Z,69.50
2018-09-16T18:27:49.487Z,69.80
2018-09-16T18:30:17.092Z,70.60
2018-09-16T18:32:44.535Z,71.30
2018-09-16T18:35:12.034Z,70.60
2018-09-16T18:37:39.485Z,70.50
2018-09-16T18:40:08.978Z,70.00
2018-09-16T18:42:36.460Z,70.30
2018-09-16T18:45:03.880Z,71.10
2018-09-16T18:47:31.385Z,71.60
2018-09-16T18:49:58.824Z,72.00
2018-09-16T18:52:26.245Z,72.40
2018-09-16T18:54:53.664Z,72.70
2018-09-16T18:57:21.180Z,74.10
2018-09-16T18:59:48.754Z,74.00
2018-09-16T19:02:16.204Z,74.40
2018-09-16T19:04:43.745Z,74.90
2018-09-16T19:07:11.219Z,75.80
2018-09-16T19:09:39.737Z,76.60
2018-09-16T19:12:07.213Z,77.10
2018-09-16T19:14:34.641Z,77.80
2018-09-16T19:17:02.134Z,78.40
2018-09-16T19:19:29.551Z,78.90
2018-09-16T19:21:57.068Z,79.10
2018-09-16T19:24:24.509Z,78.00
2018-09-16T19:26:51.937Z,78.90
2018-09-16T19:29:19.365Z,78.30
2018-09-16T19:31:46.845Z,78.20
2018-09-16T19:34:14.426Z,78.00
2018-09-16T19:36:41.971Z,78.10
2018-09-16T19:39:10.205Z,78.80
2018-09-16T19:41:37.678Z,78.60
2018-09-16T19:44:05.150Z,78.70
2018-09-16T19:46:32.771Z,78.20
2018-09-16T19:49:00.290Z,78.30
2018-09-16T19:51:27.726Z,78.00
2018-09-16T19:53:56.208Z,77.50
2018-09-16T19:56:23.668Z,77.90
2018-09-16T19:58:51.090Z,78.50
2018-09-16T20:01:18.512Z,79.10
2018-09-16T20:03:45.998Z,79.50
2018-09-16T20:06:13.528Z,79.90
2018-09-16T20:08:41.002Z,80.10
2018-09-16T20:11:08.711Z,78.70
2018-09-16T20:13:38.248Z,79.60
2018-09-16T20:16:05.687Z,79.50
2018-09-16T20:18:33.163Z,79.50
2018-09-16T20:21:00.609Z,79.40
2018-09-16T20:23:28.114Z,79.10
2018-09-16T20:25:55.587Z,79.70
2018-09-16T20:28:23.262Z,80.10
2018-09-16T20:30:50.737Z,79.90
2018-09-16T20:33:18.690Z,79.70
2018-09-16T20:35:46.121Z,79.60
2018-09-16T20:38:13.610Z,80.10
2018-09-16T20:40:41.012Z,80.00
2018-09-16T20:43:08.480Z,81.80
2018-09-16T20:45:38.067Z,81.90
2018-09-16T20:48:05.609Z,82.70
2018-09-16T20:50:33.025Z,82.80
2018-09-16T20:53:00.549Z,82.90
2018-09-16T20:55:28.032Z,83.30
2018-09-16T20:57:55.483Z,83.30
2018-09-16T21:00:23.006Z,83.10
2018-09-16T21:02:50.481Z,83.10
2018-09-16T21:05:17.900Z,83.00
2018-09-16T21:07:45.310Z,82.80
2018-09-16T21:10:12.786Z,82.10
2018-09-16T21:12:40.298Z,82.10
2018-09-16T21:15:07.735Z,82.60
2018-09-16T21:17:35.268Z,82.80
2018-09-16T21:20:02.729Z,82.80
2018-09-16T21:22:30.133Z,83.10
2018-09-16T21:24:57.542Z,83.60
2018-09-16T21:27:24.957Z,83.10
2018-09-16T21:29:52.405Z,82.80
2018-09-16T21:32:19.919Z,83.00
2018-09-16T21:34:47.284Z,83.50
2018-09-16T21:37:14.914Z,83.60
2018-09-16T21:39:42.334Z,84.20
2018-09-16T21:42:09.758Z,84.90
2018-09-16T21:44:37.218Z,85.10
2018-09-16T21:47:04.649Z,85.80
2018-09-16T21:49:32.173Z,86.60
2018-09-16T21:51:59.632Z,87.30
2018-09-16T21:54:27.285Z,87.90
2018-09-16T21:56:54.736Z,88.40
2018-09-16T21:59:22.365Z,89.10
2018-09-16T22:01:49.775Z,89.60
2018-09-16T22:04:17.199Z,89.30
2018-09-16T22:06:44.608Z,89.30
2018-09-16T22:09:12.076Z,89.20
2018-09-16T22:11:39.538Z,89.70
2018-09-16T22:14:07.130Z,90.00
2018-09-16T22:16:34.606Z,90.30
2018-09-16T22:19:02.027Z,90.60
2018-09-16T22:21:29.547Z,91.00
2018-09-16T22:23:57.059Z,91.50
2018-09-16T22:26:24.505Z,92.00
2018-09-16T22:28:53.036Z,92.30
2018-09-16T22:31:20.451Z,92.70
2018-09-16T22:33:48.169Z,92.60
2018-09-16T22:36:15.596Z,92.60
2018-09-16T22:38:43.100Z,92.90
2018-09-16T22:41:10.551Z,92.90
2018-09-16T22:43:37.972Z,93.30
2018-09-16T22:46:05.429Z,93.50
2018-09-16T22:48:32.873Z,93.70
2018-09-16T22:51:00.352Z,94.40
2018-09-16T22:53:27.784Z,94.70
2018-09-16T22:55:55.286Z,94.70
2018-09-16T22:58:22.708Z,95.00
2018-09-16T23:00:50.163Z,95.00
2018-09-16T23:03:17.636Z,94.90
2018-09-16T23:05:45.115Z,94.70
2018-09-16T23:08:12.619Z,94.70
2018-09-16T23:10:40.018Z,94.40
2018-09-16T23:13:07.464Z,94.60
2018-09-16T23:15:35.016Z,94.50
2018-09-16T23:18:02.416Z,94.40
2018-09-16T23:20:29.884Z,94.40
2018-09-16T23:22:57.407Z,94.40
2018-09-16T23:25:24.828Z,94.90
2018-09-16T23:27:52.240Z,95.20
2018-09-16T23:30:19.671Z,95.20
2018-09-16T23:32:47.349Z,95.70
2018-09-16T23:35:14.780Z,95.80
2018-09-16T23:37:42.283Z,96.40
2018-09-16T23:40:09.678Z,96.70
2018-09-16T23:42:37.105Z,96.90
2018-09-16T23:45:04.568Z,96.90
2018-09-16T23:47:31.989Z,97.10
2018-09-16T23:49:59.609Z,97.10
2018-09-16T23:52:27.177Z,97.10
2018-09-16T23:54:54.613Z,97.30
2018-09-16T23:57:22.024Z,97.50
2018-09-16T23:59:49.446Z,97.80
